Time;durP1;ratioP1;P1;durP2;ratioP2;P2;SDS_P1;SDS_P2;PMS_P1;PMS_P2;Temp;Humidity;BMP_temperature;BMP_pressure;BME280_temperature;BME280_humidity;BME280_pressure;Samples;Min_cycle;Max_cycle;Signal;HPM_P1;HPM_P2
2022/07/01 00:00:16;;;;;;;7.68;2.30;;;14.30;99.90;;;;;;5032928;28;20098;-89
2022/07/01 00:02:41;;;;;;;8.80;2.60;;;14.40;99.90;;;;;;5050102;28;20041;-87
2022/07/01 00:05:22;;;;;;;8.82;2.75;;;14.40;99.90;;;;;;5116155;27;20062;-88
2022/07/01 00:08:14;;;;;;;8.07;2.67;;;14.40;99.90;;;;;;5118147;27;20559;-88
2022/07/01 00:11:39;;;;;;;8.73;2.67;;;14.50;99.90;;;;;;5117725;27;20067;-88
2022/07/01 00:15:04;;;;;;;9.43;2.47;;;14.30;99.90;;;;;;5136736;27;20059;-88
2022/07/01 00:18:26;;;;;;;7.07;2.20;;;14.10;99.90;;;;;;5118201;27;20104;-88
2022/07/01 00:20:52;;;;;;;8.55;2.53;;;14.20;99.90;;;;;;5135797;27;20061;-88
2022/07/01 00:25:45;;;;;;;8.25;2.60;;;14.50;99.90;;;;;;5133469;27;20047;-88
2022/07/01 00:28:11;;;;;;;7.57;2.40;;;14.40;99.90;;;;;;5136291;27;20046;-87
2022/07/01 00:30:37;;;;;;;9.90;2.90;;;15.20;99.90;;;;;;5136840;27;20096;-88
2022/07/01 00:33:03;;;;;;;10.57;3.70;;;14.50;99.90;;;;;;5136151;27;20486;-87
2022/07/01 00:35:29;;;;;;;8.63;3.50;;;14.60;99.90;;;;;;5134397;27;20491;-88
2022/07/01 00:38:04;;;;;;;9.75;3.53;;;14.50;99.90;;;;;;5191783;22;20127;-88
2022/07/01 00:40:55;;;;;;;9.45;3.58;;;14.90;99.90;;;;;;5137465;22;20109;-87
2022/07/01 00:43:41;;;;;;;10.45;2.90;;;14.90;99.90;;;;;;5156780;27;20037;-88
2022/07/01 00:49:29;;;;;;;10.85;3.13;;;14.50;99.90;;;;;;5143670;22;20051;-88
2022/07/01 00:52:12;;;;;;;10.75;3.65;;;15.70;99.90;;;;;;5136549;27;20089;-88
2022/07/01 01:00:50;;;;;;;9.38;3.45;;;14.70;99.90;;;;;;5117778;27;20051;-87
2022/07/01 01:03:22;;;;;;;10.02;3.22;;;14.50;99.90;;;;;;5116678;27;20043;-88
2022/07/01 01:06:03;;;;;;;9.68;3.35;;;15.90;99.90;;;;;;5117156;27;20071;-88
2022/07/01 01:08:38;;;;;;;7.95;2.95;;;15.10;99.90;;;;;;5117392;27;20042;-88
2022/07/01 01:11:22;;;;;;;8.93;2.92;;;14.70;99.90;;;;;;5104275;27;20092;-87
2022/07/01 01:13:59;;;;;;;8.32;2.60;;;15.70;99.90;;;;;;5117015;27;20043;-88
2022/07/01 01:19:12;;;;;;;7.50;2.67;;;15.80;99.90;;;;;;5135590;27;20051;-87
2022/07/01 01:21:41;;;;;;;7.15;2.50;;;15.10;99.90;;;;;;5117180;27;20470;-87
2022/07/01 01:24:16;;;;;;;7.57;2.17;;;15.50;99.90;;;;;;5116558;27;20035;-87
2022/07/01 01:27:13;;;;;;;7.80;2.53;;;14.70;99.90;;;;;;5117036;27;20035;-87
2022/07/01 01:32:52;;;;;;;7.30;2.33;;;14.70;99.90;;;;;;5138887;22;20055;-87
2022/07/01 01:35:24;;;;;;;7.05;2.13;;;14.70;99.90;;;;;;5135451;27;20046;-87
2022/07/01 01:38:05;;;;;;;7.60;2.00;;;14.60;99.90;;;;;;5134828;27;20084;-88
2022/07/01 01:40:46;;;;;;;6.78;1.98;;;14.70;99.90;;;;;;5117186;27;20390;-88
2022/07/01 01:43:12;;;;;;;5.50;1.70;;;15.30;99.90;;;;;;5135015;27;20490;-88
2022/07/01 01:45:55;;;;;;;6.28;1.83;;;15.70;99.90;;;;;;5116290;27;20053;-88
2022/07/01 01:48:37;;;;;;;5.32;1.85;;;15.80;99.90;;;;;;5116724;27;20363;-88
2022/07/01 01:58:50;;;;;;;5.78;1.90;;;14.60;99.90;;;;;;5409402;22;20055;-88
2022/07/01 02:01:34;;;;;;;6.85;2.13;;;15.60;99.90;;;;;;5114343;27;20165;-88
2022/07/01 02:04:39;;;;;;;6.22;1.90;;;15.00;99.90;;;;;;5116246;27;20598;-88
2022/07/01 02:07:26;;;;;;;6.00;2.10;;;14.50;99.90;;;;;;5115375;27;20051;-88
2022/07/01 02:13:01;;;;;;;8.45;2.13;;;14.50;99.90;;;;;;5399426;22;19923;-88
2022/07/01 02:18:38;;;;;;;9.05;3.20;;;15.10;99.90;;;;;;5116101;27;20247;-88
2022/07/01 02:21:09;;;;;;;8.45;3.10;;;14.10;99.90;;;;;;5133818;27;20043;-88
2022/07/01 02:23:55;;;;;;;10.23;4.50;;;15.60;99.90;;;;;;5135082;27;20042;-89
2022/07/01 02:26:24;;;;;;;13.63;5.20;;;15.40;99.90;;;;;;5122384;27;20050;-88
2022/07/01 02:28:55;;;;;;;14.15;7.15;;;14.50;99.90;;;;;;5121971;27;20066;-88
2022/07/01 02:31:31;;;;;;;20.08;10.02;;;15.40;99.90;;;;;;5133757;27;20043;-89
2022/07/01 02:36:35;;;;;;;23.25;14.45;;;14.50;99.90;;;;;;5204357;22;20051;-88
2022/07/01 02:39:00;;;;;;;23.92;13.23;;;15.10;99.90;;;;;;5134062;27;20555;-89
2022/07/01 02:41:26;;;;;;;24.73;13.85;;;14.50;99.90;;;;;;5116585;27;20138;-88
2022/07/01 02:43:52;;;;;;;23.73;12.85;;;14.50;99.90;;;;;;5117162;27;20043;-89
2022/07/01 02:46:17;;;;;;;22.80;12.55;;;14.50;99.90;;;;;;5115967;27;20092;-88
2022/07/01 02:48:43;;;;;;;23.38;12.35;;;14.50;99.90;;;;;;5114993;27;20395;-88
2022/07/01 02:51:11;;;;;;;21.10;12.23;;;14.80;99.90;;;;;;5133828;27;20099;-88
2022/07/01 02:53:39;;;;;;;21.90;12.45;;;14.70;99.90;;;;;;5115802;27;20043;-89
2022/07/01 02:56:05;;;;;;;22.98;12.35;;;14.60;99.90;;;;;;5133005;27;20050;-89
2022/07/01 02:58:33;;;;;;;20.88;11.38;;;14.90;99.90;;;;;;5134229;27;20436;-88
2022/07/01 03:00:59;;;;;;;22.63;12.57;;;14.50;99.90;;;;;;5097374;27;20055;-89
2022/07/01 03:03:39;;;;;;;22.80;13.30;;;14.50;99.90;;;;;;5132479;27;20054;-89
2022/07/01 03:06:05;;;;;;;21.10;11.60;;;15.00;99.90;;;;;;5133600;27;20051;-89
2022/07/01 03:09:08;;;;;;;24.17;12.80;;;15.60;99.90;;;;;;5115631;27;20538;-89
2022/07/01 03:15:37;;;;;;;22.80;13.30;;;14.50;99.90;;;;;;5031004;28;20043;-89
2022/07/01 03:18:23;;;;;;;24.70;13.07;;;15.20;99.90;;;;;;5013135;28;20509;-89
2022/07/01 03:21:19;;;;;;;21.02;11.75;;;14.50;99.90;;;;;;5050183;28;20049;-88
2022/07/01 03:27:05;;;;;;;19.58;10.95;;;14.80;99.90;;;;;;5159633;22;20042;-89
2022/07/01 03:30:40;;;;;;;19.67;10.98;;;15.30;99.90;;;;;;5140658;22;20068;-88
2022/07/01 03:34:01;;;;;;;19.95;10.68;;;14.30;99.90;;;;;;5133510;28;20059;-88
2022/07/01 03:37:20;;;;;;;18.83;9.93;;;14.30;99.90;;;;;;5114737;28;20529;-88
2022/07/01 03:39:48;;;;;;;17.88;9.55;;;14.30;99.90;;;;;;5132416;27;20051;-89
2022/07/01 03:42:29;;;;;;;19.15;10.02;;;14.20;99.90;;;;;;5138205;27;20046;-89
2022/07/01 03:45:10;;;;;;;17.50;10.10;;;15.30;99.90;;;;;;5118436;27;20078;-89
2022/07/01 03:47:51;;;;;;;18.67;9.95;;;14.20;99.90;;;;;;5174542;22;20138;-89
2022/07/01 03:50:51;;;;;;;17.92;10.88;;;15.50;99.90;;;;;;5119331;27;20047;-89
2022/07/01 03:56:39;;;;;;;21.65;11.18;;;15.50;99.90;;;;;;5118800;27;20035;-89
2022/07/01 03:59:23;;;;;;;21.58;12.02;;;14.20;99.90;;;;;;5053321;28;20049;-89
2022/07/01 04:01:49;;;;;;;20.88;11.55;;;15.20;99.90;;;;;;5044618;28;20489;-89
2022/07/01 04:04:15;;;;;;;23.65;11.95;;;14.80;99.90;;;;;;5037117;28;20070;-89
2022/07/01 04:06:45;;;;;;;20.38;11.60;;;14.70;99.90;;;;;;5051506;28;20049;-89
2022/07/01 04:09:31;;;;;;;23.77;12.20;;;14.10;99.90;;;;;;5068047;22;20047;-89
2022/07/01 04:12:34;;;;;;;23.90;13.43;;;15.40;99.90;;;;;;5116676;28;20051;-89
2022/07/01 04:15:18;;;;;;;23.40;12.77;;;14.00;99.90;;;;;;5115722;28;20040;-89
2022/07/01 04:17:53;;;;;;;;;;;14.20;99.90;;;;;;5116714;28;20047;-89
2022/07/01 04:20:23;;;;;;;24.20;13.20;;;14.20;99.90;;;;;;5125581;22;19931;-89
2022/07/01 04:23:04;;;;;;;25.67;13.52;;;14.80;99.90;;;;;;5118470;27;20055;-89
2022/07/01 04:25:39;;;;;;;26.83;15.18;;;14.70;99.90;;;;;;5118574;27;20054;-89
2022/07/01 04:28:26;;;;;;;29.60;14.77;;;15.10;99.90;;;;;;5117780;27;20396;-89
2022/07/01 04:34:26;;;;;;;30.02;15.98;;;14.10;99.90;;;;;;5293316;22;20051;-89
2022/07/01 04:44:14;;;;;;;28.60;15.98;;;15.30;99.90;;;;;;5052965;28;20055;-89
2022/07/01 04:46:55;;;;;;;29.55;15.98;;;14.30;99.90;;;;;;5036450;28;20041;-88
2022/07/01 04:49:34;;;;;;;31.10;16.10;;;14.20;99.90;;;;;;5035732;28;20053;-88
2022/07/01 04:52:02;;;;;;;31.33;16.33;;;14.20;99.90;;;;;;5052284;28;20052;-89
2022/07/01 04:55:01;;;;;;;29.83;15.63;;;14.20;99.90;;;;;;5039919;28;20045;-88
2022/07/01 04:57:40;;;;;;;27.77;14.35;;;15.10;99.90;;;;;;5402027;22;20522;-88
2022/07/01 05:00:48;;;;;;;29.17;15.18;;;14.50;99.90;;;;;;5139143;27;20043;-89
2022/07/01 05:06:20;;;;;;;29.75;15.63;;;14.90;99.90;;;;;;5115334;28;20512;-89
2022/07/01 05:08:49;;;;;;;28.20;14.93;;;14.80;99.90;;;;;;5113982;28;20039;-89
2022/07/01 05:11:31;;;;;;;29.88;15.43;;;15.10;99.90;;;;;;5111708;28;20377;-89
2022/07/01 05:14:12;;;;;;;27.35;15.85;;;15.20;99.90;;;;;;5113501;28;20446;-88
2022/07/01 05:24:46;;;;;;;26.55;14.38;;;14.80;99.90;;;;;;5373331;22;20112;-89
2022/07/01 05:27:27;;;;;;;28.92;15.73;;;14.20;99.90;;;;;;5141160;22;20051;-89
2022/07/01 05:30:11;;;;;;;32.25;15.82;;;14.70;99.90;;;;;;5135690;27;20126;-89
2022/07/01 05:32:56;;;;;;;;;;;14.30;99.90;;;;;;5137544;27;20126;-88
2022/07/01 05:35:43;;;;;;;;;;;14.30;99.90;;;;;;5137472;27;20022;-89
2022/07/01 05:38:23;;;;;;;29.35;15.88;;;14.30;99.90;;;;;;5134242;27;19923;-87
2022/07/01 05:46:59;;;;;;;30.88;16.17;;;14.50;99.90;;;;;;5135674;27;20057;-90
2022/07/01 05:49:31;;;;;;;33.22;16.98;;;15.10;99.90;;;;;;5117280;27;20038;-90
2022/07/01 05:52:03;;;;;;;29.58;16.83;;;14.60;99.90;;;;;;5134898;27;20043;-91
2022/07/01 05:57:09;;;;;;;28.05;16.73;;;14.70;99.90;;;;;;5092948;28;20044;-95
2022/07/01 05:59:37;;;;;;;26.00;15.80;;;15.70;99.90;;;;;;5075746;28;20483;-91
2022/07/01 06:02:14;;;;;;;29.38;16.90;;;14.70;99.90;;;;;;5076950;28;20085;-93
2022/07/01 06:04:43;;;;;;;29.95;16.67;;;14.80;99.90;;;;;;5094577;28;20054;-93
2022/07/01 06:07:27;;;;;;;28.15;16.40;;;15.00;99.90;;;;;;5075481;28;20048;-92
2022/07/01 06:09:56;;;;;;;29.13;16.45;;;15.00;99.90;;;;;;5094148;28;20093;-93
2022/07/01 06:12:22;;;;;;;27.25;16.52;;;15.20;99.90;;;;;;5093178;28;20052;-93
2022/07/01 06:15:08;;;;;;;26.92;16.42;;;15.80;99.90;;;;;;5093629;28;20043;-91
2022/07/01 06:17:41;;;;;;;27.65;16.33;;;14.90;99.90;;;;;;5095258;28;20097;-93
2022/07/01 06:20:22;;;;;;;27.65;16.48;;;15.10;99.90;;;;;;5076523;28;20047;-95
2022/07/01 06:23:03;;;;;;;27.15;15.70;;;15.20;99.90;;;;;;5074887;28;20047;-93
2022/07/01 06:25:28;;;;;;;27.70;17.05;;;16.10;99.90;;;;;;5094474;28;20040;-94
2022/07/01 06:27:54;;;;;;;28.65;16.48;;;16.20;99.90;;;;;;5092960;28;20050;-93
2022/07/01 06:30:32;;;;;;;26.33;15.38;;;15.10;99.90;;;;;;5075757;28;20051;-94
2022/07/01 06:32:58;;;;;;;26.17;15.48;;;15.80;99.90;;;;;;5075000;28;20047;-91
2022/07/01 06:35:24;;;;;;;24.98;14.80;;;15.20;99.90;;;;;;5074487;28;20048;-91
2022/07/01 06:37:56;;;;;;;26.80;15.02;;;15.30;99.90;;;;;;5092418;28;20089;-91
2022/07/01 06:44:04;;;;;;;28.60;16.45;;;15.50;99.90;;;;;;5075071;28;20048;-94
2022/07/01 06:46:42;;;;;;;26.02;16.60;;;15.60;99.90;;;;;;5094900;28;20127;-92
2022/07/01 06:49:29;;;;;;;26.38;15.45;;;16.60;99.90;;;;;;5093681;28;20127;-93
2022/07/01 06:51:55;;;;;;;29.17;15.80;;;15.70;99.90;;;;;;5088768;28;20527;-89
2022/07/01 06:54:23;;;;;;;27.25;16.50;;;15.70;99.90;;;;;;5093716;28;20043;-90
2022/07/01 06:56:52;;;;;;;26.50;16.92;;;16.20;99.90;;;;;;5092312;28;20071;-92
2022/07/01 06:59:22;;;;;;;27.92;16.65;;;16.80;99.90;;;;;;5075286;28;20040;-90
2022/07/01 07:01:49;;;;;;;25.67;16.80;;;15.80;99.90;;;;;;5075429;28;20048;-93
2022/07/01 07:04:34;;;;;;;26.88;16.48;;;15.80;99.90;;;;;;5035594;28;20045;-92
2022/07/01 07:07:09;;;;;;;26.23;16.48;;;15.70;99.90;;;;;;5032676;28;20376;-91
2022/07/01 07:09:37;;;;;;;27.33;16.40;;;16.70;99.90;;;;;;5016773;28;20072;-94
2022/07/01 07:12:03;;;;;;;29.05;16.85;;;15.60;99.90;;;;;;4983044;28;20056;-91
2022/07/01 07:14:48;;;;;;;26.38;15.85;;;15.70;99.90;;;;;;5015134;28;20481;-91
2022/07/01 07:17:14;;;;;;;27.38;17.08;;;15.50;99.90;;;;;;5030498;28;20052;-90
2022/07/01 07:19:39;;;;;;;25.90;15.65;;;16.30;99.90;;;;;;5030481;28;20046;-91
2022/07/01 07:22:24;;;;;;;24.52;15.68;;;15.40;99.90;;;;;;5014829;28;20053;-92
2022/07/01 07:25:08;;;;;;;28.10;15.98;;;15.40;99.90;;;;;;5082104;22;20047;-91
2022/07/01 07:28:01;;;;;;;;;;;15.60;99.90;;;;;;5134627;28;20062;-90
2022/07/01 07:31:37;;;;;;;26.15;15.30;;;15.30;99.90;;;;;;5115192;28;19926;-88
2022/07/01 07:34:09;;;;;;;26.80;15.98;;;15.40;99.90;;;;;;5133725;28;20078;-90
2022/07/01 07:36:50;;;;;;;27.08;16.23;;;16.10;99.90;;;;;;5115581;28;20392;-91
2022/07/01 07:39:15;;;;;;;25.77;16.10;;;15.40;99.90;;;;;;5133709;28;20043;-92
2022/07/01 07:41:41;;;;;;;26.73;16.25;;;16.40;99.90;;;;;;5134773;28;20049;-91
2022/07/01 07:47:08;;;;;;;25.20;15.60;;;15.70;99.90;;;;;;5134410;28;20518;-94
2022/07/01 07:49:53;;;;;;;26.48;15.68;;;15.70;99.90;;;;;;5135559;28;20035;-93
2022/07/01 07:52:34;;;;;;;26.98;16.08;;;15.80;99.90;;;;;;5135343;28;20046;-94
2022/07/01 07:54:59;;;;;;;26.45;15.18;;;15.90;99.90;;;;;;5134041;28;20047;-93
2022/07/01 07:57:55;;;;;;;25.05;14.88;;;16.00;99.90;;;;;;5115370;28;20403;-93
2022/07/01 08:00:21;;;;;;;24.58;14.68;;;15.30;99.90;;;;;;5114812;28;20043;-92
2022/07/01 08:02:53;;;;;;;24.40;14.93;;;17.20;99.90;;;;;;5133393;28;20088;-91
2022/07/01 08:05:27;;;;;;;25.75;15.98;;;17.10;99.90;;;;;;5118229;28;20054;-92
2022/07/01 08:07:53;;;;;;;23.35;15.20;;;16.10;99.90;;;;;;5133433;28;20075;-93
2022/07/01 08:10:25;;;;;;;24.70;15.00;;;16.90;99.90;;;;;;5115305;28;20105;-91
2022/07/01 08:12:51;;;;;;;24.95;14.60;;;17.00;99.90;;;;;;5114033;28;20067;-91
2022/07/01 08:15:16;;;;;;;25.23;14.50;;;16.50;99.90;;;;;;5115420;28;20067;-92
2022/07/01 08:17:42;;;;;;;25.27;14.85;;;16.40;99.90;;;;;;5114623;28;20487;-92
2022/07/01 08:20:08;;;;;;;23.52;13.60;;;16.90;99.90;;;;;;5114391;28;20126;-91
2022/07/01 08:22:36;;;;;;;23.73;13.38;;;16.60;99.90;;;;;;5115090;28;20047;-91
2022/07/01 08:25:03;;;;;;;22.52;13.85;;;16.60;99.90;;;;;;5116271;27;20058;-93
2022/07/01 08:27:29;;;;;;;23.80;14.07;;;16.70;99.90;;;;;;5132696;27;20615;-92
2022/07/01 08:29:54;;;;;;;24.35;13.95;;;16.80;99.90;;;;;;5103709;27;20036;-91
2022/07/01 08:32:26;;;;;;;24.52;14.18;;;17.00;99.90;;;;;;5152549;22;20075;-92
2022/07/01 08:35:46;;;;;;;25.17;13.32;;;17.20;99.90;;;;;;5116253;27;20510;-93
2022/07/01 08:40:57;;;;;;;23.05;13.15;;;17.20;99.90;;;;;;5132411;27;20067;-91
2022/07/01 08:43:41;;;;;;;20.58;12.45;;;18.20;99.90;;;;;;5198770;22;20043;-91
2022/07/01 08:47:14;;;;;;;23.25;13.38;;;17.80;99.90;;;;;;5079053;28;20120;-89
2022/07/01 08:49:40;;;;;;;22.52;12.63;;;17.90;99.90;;;;;;5091022;28;20060;-92
2022/07/01 08:52:09;;;;;;;19.58;11.57;;;18.70;99.90;;;;;;5077773;28;20045;-92
2022/07/01 08:54:39;;;;;;;20.55;11.95;;;18.70;99.90;;;;;;5058393;28;20084;-90
2022/07/01 08:57:05;;;;;;;19.88;11.85;;;18.90;99.90;;;;;;5075501;28;20045;-91
2022/07/01 08:59:49;;;;;;;17.75;10.32;;;18.20;99.90;;;;;;5057600;28;20381;-92
2022/07/01 09:02:27;;;;;;;;;;;18.10;99.90;;;;;;5058799;28;20048;-96
2022/07/01 09:05:37;;;;;;;17.05;10.23;;;18.00;99.90;;;;;;5065660;28;19928;-89
2022/07/01 09:08:33;;;;;;;17.90;10.52;;;17.70;99.90;;;;;;5075474;28;20068;-93
2022/07/01 09:11:24;;;;;;;15.50;8.30;;;17.80;99.90;;;;;;5074733;28;20048;-91
2022/07/01 09:14:30;;;;;;;17.05;9.15;;;17.40;99.90;;;;;;5075280;28;20098;-95
2022/07/01 09:17:16;;;;;;;15.90;8.38;;;17.60;99.90;;;;;;5057790;28;20053;-93
2022/07/01 09:19:57;;;;;;;17.83;8.85;;;17.70;99.90;;;;;;5086340;22;20072;-93
2022/07/01 09:22:26;;;;;;;17.17;9.43;;;18.20;99.90;;;;;;5135881;27;20073;-93
2022/07/01 09:25:23;;;;;;;17.05;9.30;;;18.40;99.90;;;;;;5135619;27;20087;-89
2022/07/01 09:28:16;;;;;;;17.73;9.05;;;19.10;99.90;;;;;;5134259;27;20091;-91
2022/07/01 09:30:58;;;;;;;17.83;8.23;;;18.20;99.90;;;;;;5133217;27;20494;-90
2022/07/01 09:33:46;;;;;;;16.00;8.20;;;18.90;99.90;;;;;;5134098;27;20035;-91
2022/07/01 09:36:30;;;;;;;13.23;7.20;;;18.00;99.90;;;;;;5135259;27;20054;-90
2022/07/01 09:39:21;;;;;;;16.27;7.75;;;18.00;99.90;;;;;;5134227;27;20523;-91
2022/07/01 09:45:16;;;;;;;17.13;8.70;;;18.10;99.90;;;;;;5051283;28;20405;-91
2022/07/01 09:47:51;;;;;;;14.57;8.27;;;18.10;99.90;;;;;;5051782;28;20540;-92
2022/07/01 09:50:29;;;;;;;17.85;8.85;;;18.20;99.90;;;;;;5119062;27;20126;-90
2022/07/01 09:52:55;;;;;;;14.63;7.72;;;18.40;99.90;;;;;;5116257;27;20039;-91
2022/07/01 09:55:34;;;;;;;16.30;8.88;;;18.60;99.90;;;;;;5135553;27;20122;-91
2022/07/01 09:58:10;;;;;;;;;;;;;;;;;;;;;
2022/07/01 10:01:23;;;;;;;12.88;7.40;;;18.60;99.90;;;;;;5069823;27;20051;-90
2022/07/01 10:04:08;;;;;;;16.02;7.20;;;18.40;99.90;;;;;;5110235;27;20379;-89
2022/07/01 10:07:02;;;;;;;14.15;6.53;;;18.50;99.90;;;;;;5099846;27;20047;-90
2022/07/01 10:13:10;;;;;;;15.32;6.32;;;18.40;99.90;;;;;;5137621;22;20514;-92
2022/07/01 10:15:36;;;;;;;14.38;6.22;;;18.30;99.90;;;;;;5126746;27;20059;-91
2022/07/01 10:19:04;;;;;;;12.48;5.70;;;18.60;99.90;;;;;;5115991;27;20509;-94
2022/07/01 10:21:42;;;;;;;12.07;5.22;;;18.90;99.90;;;;;;5116855;27;20071;-92
2022/07/01 10:24:27;;;;;;;11.55;5.97;;;19.00;99.90;;;;;;5116782;27;20092;-91
2022/07/01 10:27:23;;;;;;;11.52;5.68;;;19.20;99.90;;;;;;5115457;27;20499;-93
2022/07/01 10:34:11;;;;;;;16.08;6.68;;;19.70;99.90;;;;;;5072646;27;20126;-92
2022/07/01 10:37:23;;;;;;;12.35;6.97;;;20.20;99.90;;;;;;5115864;27;20135;-91
2022/07/01 10:40:06;;;;;;;16.15;6.20;;;20.20;99.90;;;;;;5132174;27;20051;-91
2022/07/01 10:43:22;;;;;;;;;;;;;;;;;;;;;
2022/07/01 10:46:35;;;;;;;12.75;5.45;;;20.70;99.90;;;;;;5129776;27;20047;-89
2022/07/01 10:52:07;;;;;;;10.90;4.75;;;20.30;99.90;;;;;;5138312;22;20486;-92
2022/07/01 10:55:12;;;;;;;11.27;4.72;;;20.20;99.90;;;;;;5121212;27;20114;-91
2022/07/01 10:58:28;;;;;;;;;;;;;;;;;;;;;
2022/07/01 11:01:04;;;;;;;12.60;5.70;;;20.30;99.90;;;;;;5111447;28;20078;-95
2022/07/01 11:03:55;;;;;;;10.43;4.47;;;20.50;99.90;;;;;;5108368;27;20114;-93
2022/07/01 11:09:12;;;;;;;;;;;;;;;;;;;;;
2022/07/01 11:15:47;;;;;;;9.13;3.95;;;20.90;99.90;;;;;;5057620;28;20513;-94
2022/07/01 11:18:25;;;;;;;9.02;4.57;;;20.60;99.90;;;;;;5134771;27;20038;-94
2022/07/01 11:21:09;;;;;;;9.63;4.10;;;20.80;99.90;;;;;;5116126;28;20043;-94
2022/07/01 11:24:16;;;;;;;9.98;4.30;;;20.90;99.90;;;;;;5084114;28;20051;-94
2022/07/01 11:27:27;;;;;;;9.75;4.28;;;20.80;99.90;;;;;;5087222;28;20045;-94
2022/07/01 11:30:42;;;;;;;9.98;4.40;;;21.30;99.90;;;;;;5097768;28;20395;-92
2022/07/01 11:33:11;;;;;;;9.68;3.90;;;21.30;99.90;;;;;;5115261;28;20047;-92
2022/07/01 11:43:51;;;;;;;;;;;;;;;;;;;;;
2022/07/01 11:46:29;;;;;;;11.57;4.60;;;21.90;99.90;;;;;;5059158;22;20079;-92
2022/07/01 11:48:55;;;;;;;10.65;4.45;;;22.40;99.90;;;;;;5093680;28;20133;-92
2022/07/01 11:51:48;;;;;;;10.60;4.20;;;23.10;99.90;;;;;;5095137;28;20479;-93
2022/07/01 11:54:55;;;;;;;9.23;3.90;;;22.80;99.90;;;;;;5112973;27;20061;-92
2022/07/01 11:57:23;;;;;;;9.68;3.95;;;22.60;99.90;;;;;;5118153;28;20059;-92
2022/07/01 12:00:21;;;;;;;12.80;4.30;;;22.30;99.90;;;;;;5118150;28;20044;-92
2022/07/01 12:02:53;;;;;;;9.90;3.83;;;22.30;99.90;;;;;;5074937;22;20058;-93
2022/07/01 12:06:30;;;;;;;9.98;4.20;;;22.30;99.90;;;;;;5158444;27;20046;-94
2022/07/01 12:12:36;;;;;;;10.00;4.03;;;22.70;99.90;;;;;;4955402;28;20564;-89
2022/07/01 12:15:16;;;;;;;10.75;4.22;;;22.40;99.90;;;;;;4951817;29;20066;-91
2022/07/01 12:18:19;;;;;;;9.13;3.95;;;23.00;99.90;;;;;;4955108;28;20047;-87
2022/07/01 12:42:01;;;;;;;8.93;3.03;;;21.50;99.90;;;;;;5097295;28;20051;-93
2022/07/01 12:47:37;;;;;;;10.38;2.88;;;20.60;99.90;;;;;;5117688;27;20185;-93
2022/07/01 13:03:55;;;;;;;7.65;2.70;;;21.70;99.90;;;;;;5056436;28;20051;-95
2022/07/01 13:07:01;;;;;;;8.57;2.50;;;21.50;99.90;;;;;;5057042;28;20514;-93
2022/07/01 13:09:54;;;;;;;7.95;2.47;;;20.90;99.90;;;;;;5073632;28;20055;-94
2022/07/01 13:12:42;;;;;;;10.43;3.00;;;20.80;99.90;;;;;;5056404;28;20511;-95
2022/07/01 13:15:38;;;;;;;8.32;2.67;;;21.20;99.90;;;;;;5048438;28;20130;-95
2022/07/01 13:18:25;;;;;;;9.45;2.67;;;21.00;99.90;;;;;;5120773;22;20084;-94
2022/07/01 13:21:48;;;;;;;11.13;2.75;;;21.20;99.90;;;;;;5143903;22;20047;-94
2022/07/01 13:40:17;;;;;;;7.20;2.50;;;21.70;99.90;;;;;;5131935;27;20505;-94
2022/07/01 13:43:38;;;;;;;9.50;2.85;;;22.10;99.90;;;;;;5104857;27;20567;-94
2022/07/01 13:47:08;;;;;;;8.02;2.40;;;22.00;99.90;;;;;;5135087;27;20090;-95
2022/07/01 13:50:21;;;;;;;9.55;2.55;;;21.90;99.90;;;;;;5120987;27;20051;-95
2022/07/01 13:53:06;;;;;;;;;;;21.30;99.90;;;;;;5106564;28;20034;-94
2022/07/01 13:55:47;;;;;;;8.57;2.92;;;21.40;99.90;;;;;;5124702;27;20055;-93
2022/07/01 13:58:34;;;;;;;8.77;2.40;;;21.30;99.90;;;;;;5034809;28;20501;-95
2022/07/01 14:04:04;;;;;;;8.88;2.60;;;21.40;99.90;;;;;;5457624;22;19923;-92
2022/07/01 14:06:55;;;;;;;7.00;2.40;;;21.20;99.90;;;;;;5126036;27;20078;-94
2022/07/01 14:13:05;;;;;;;8.65;2.55;;;21.00;99.90;;;;;;5441405;22;20047;-95
2022/07/01 14:22:58;;;;;;;7.47;2.20;;;20.80;99.90;;;;;;5028684;28;20047;-93
2022/07/01 14:28:56;;;;;;;9.38;2.33;;;20.30;99.90;;;;;;4936063;29;20139;-91
2022/07/01 14:42:17;;;;;;;6.30;2.00;;;21.60;99.90;;;;;;4972172;28;20125;-92
2022/07/01 14:52:30;;;;;;;8.90;2.13;;;22.60;99.90;;;;;;5119033;27;20464;-91
2022/07/01 14:59:05;;;;;;;8.25;2.05;;;23.30;99.90;;;;;;5034893;28;20059;-88
2022/07/01 15:05:28;;;;;;;9.30;1.98;;;22.70;99.90;;;;;;5069447;28;20045;-92
2022/07/01 15:08:00;;;;;;;8.48;1.83;;;21.90;99.90;;;;;;5043651;28;20167;-89
2022/07/01 15:10:26;;;;;;;5.30;1.90;;;21.60;99.90;;;;;;5406315;22;20123;-92
2022/07/01 15:12:51;;;;;;;7.22;2.10;;;21.20;99.90;;;;;;5119873;27;20070;-90
2022/07/01 15:15:17;;;;;;;7.45;2.10;;;21.00;99.90;;;;;;5128497;27;20072;-93
2022/07/01 15:17:45;;;;;;;6.00;1.90;;;21.10;99.90;;;;;;5146404;27;20039;-93
2022/07/01 15:20:12;;;;;;;7.50;2.20;;;21.30;99.90;;;;;;5153842;27;20051;-90
2022/07/01 15:22:38;;;;;;;11.15;2.10;;;21.30;99.90;;;;;;5133788;27;20061;-89
2022/07/01 15:25:04;;;;;;;7.45;2.10;;;21.80;99.90;;;;;;5135513;27;20038;-90
2022/07/01 15:27:30;;;;;;;9.13;2.03;;;22.20;99.90;;;;;;5135332;27;20043;-91
2022/07/01 15:29:55;;;;;;;8.85;2.00;;;22.20;99.90;;;;;;5151844;27;20486;-90
2022/07/01 15:32:22;;;;;;;10.40;2.63;;;22.20;99.90;;;;;;5154279;27;20030;-90
2022/07/01 15:34:48;;;;;;;9.45;2.63;;;22.00;99.90;;;;;;5154182;27;20045;-88
2022/07/01 15:37:13;;;;;;;7.95;2.40;;;22.00;99.90;;;;;;5157416;27;20042;-87
2022/07/01 15:39:39;;;;;;;8.80;2.20;;;22.30;99.90;;;;;;5158472;27;20051;-85
2022/07/01 15:42:08;;;;;;;6.90;2.30;;;22.50;99.90;;;;;;5157992;27;20379;-93
2022/07/01 15:44:34;;;;;;;8.48;3.22;;;22.50;99.90;;;;;;5141465;27;20054;-93
2022/07/01 16:04:13;;;;;;;7.05;2.00;;;22.60;98.20;;;;;;5092641;28;20133;-91
2022/07/01 16:22:07;;;;;;;8.57;2.10;;;20.80;99.90;;;;;;5090529;28;20095;-91
2022/07/01 16:32:25;;;;;;;9.00;2.20;;;20.80;99.90;;;;;;5051178;28;20071;-91
2022/07/01 16:49:28;;;;;;;7.22;2.13;;;21.20;99.90;;;;;;5125970;27;20152;-91
2022/07/01 17:03:32;;;;;;;4.28;1.70;;;22.80;94.90;;;;;;5767740;22;20039;-90
2022/07/01 17:06:52;;;;;;;6.00;1.73;;;22.50;96.30;;;;;;5126029;27;20490;-90
2022/07/01 17:13:39;;;;;;;6.32;1.58;;;22.00;97.20;;;;;;5148646;27;20033;-92
2022/07/01 17:30:03;;;;;;;4.50;1.63;;;21.90;99.10;;;;;;5452765;22;20135;-90
2022/07/01 18:07:07;;;;;;;5.32;1.80;;;22.90;96.10;;;;;;5054349;28;20044;-91
2022/07/01 18:29:03;;;;;;;6.05;1.75;;;23.40;95.20;;;;;;5131558;27;20134;-90
2022/07/01 18:42:35;;;;;;;7.00;1.75;;;23.60;94.50;;;;;;5047934;28;20052;-89
2022/07/01 18:45:05;;;;;;;6.00;1.80;;;23.40;95.00;;;;;;5033194;28;20096;-89
2022/07/01 18:47:53;;;;;;;5.15;1.92;;;23.50;96.80;;;;;;5033835;28;20080;-91
2022/07/01 18:50:42;;;;;;;6.22;2.00;;;23.50;94.80;;;;;;5008868;28;20052;-90
2022/07/01 18:53:08;;;;;;;7.88;1.90;;;23.60;95.80;;;;;;5049724;28;20527;-90
2022/07/01 18:58:57;;;;;;;6.57;1.80;;;23.10;94.60;;;;;;5030480;28;20123;-90
2022/07/01 19:01:35;;;;;;;6.72;1.80;;;23.00;95.80;;;;;;5014664;28;20056;-89
2022/07/01 19:05:05;;;;;;;;;;;;;;;;;;;;;
2022/07/01 19:08:17;;;;;;;3.83;1.70;;;22.20;96.10;;;;;;4975227;28;20049;-91
2022/07/01 19:20:09;;;;;;;6.70;1.95;;;19.80;99.70;;;;;;5355197;22;20101;-90
2022/07/01 19:23:24;;;;;;;6.10;1.80;;;19.80;99.80;;;;;;5114202;28;20062;-89
2022/07/01 19:25:56;;;;;;;4.90;1.73;;;19.40;99.90;;;;;;5113945;28;20498;-92
2022/07/01 19:28:30;;;;;;;5.60;1.70;;;19.20;99.90;;;;;;5113908;28;20055;-90
2022/07/01 19:38:34;;;;;;;5.47;1.90;;;18.40;99.90;;;;;;5011090;28;20065;-88
2022/07/01 19:41:08;;;;;;;6.53;1.80;;;19.10;99.90;;;;;;4994273;28;20062;-88
2022/07/01 19:43:49;;;;;;;6.05;2.00;;;19.20;99.90;;;;;;4994691;28;20613;-88
2022/07/01 19:46:26;;;;;;;5.70;2.15;;;19.20;99.90;;;;;;4994455;28;20100;-88
2022/07/01 19:48:55;;;;;;;5.65;2.00;;;18.20;99.90;;;;;;4993623;28;20060;-88
2022/07/01 19:55:18;;;;;;;6.50;2.00;;;18.10;99.90;;;;;;5010446;28;20054;-88
2022/07/01 19:58:05;;;;;;;6.10;1.90;;;17.90;99.90;;;;;;5350400;22;20052;-88
2022/07/01 20:19:16;;;;;;;8.93;2.70;;;16.90;99.90;;;;;;5405622;22;20047;-87
2022/07/01 20:22:09;;;;;;;8.32;3.25;;;17.90;99.90;;;;;;5096646;22;20054;-88
2022/07/01 20:25:32;;;;;;;8.23;3.03;;;16.80;99.90;;;;;;5075835;22;20048;-87
2022/07/01 20:28:55;;;;;;;9.00;3.60;;;16.70;99.90;;;;;;5071088;28;20059;-89
2022/07/01 20:31:25;;;;;;;7.63;3.03;;;16.60;99.90;;;;;;5057100;28;20063;-88
2022/07/01 20:33:57;;;;;;;8.30;3.60;;;16.20;99.90;;;;;;5057879;28;20048;-87
2022/07/01 20:36:38;;;;;;;7.50;2.70;;;17.20;99.90;;;;;;5056038;22;20095;-87
2022/07/01 20:40:03;;;;;;;7.57;2.30;;;16.20;99.90;;;;;;5075133;28;20045;-87